sensor_id;sensor_type;location;lat;lon;timestamp;P1;durP1;ratioP1;P2;durP2;ratioP2
4700;SDS011;8724;51.272;6.554;2023-12-20T00:01:22;4.03;;;3.63;;
4700;SDS011;8724;51.272;6.554;2023-12-20T00:03:51;4.70;;;3.97;;
4700;SDS011;8724;51.272;6.554;2023-12-20T00:06:20;5.00;;;3.67;;
4700;SDS011;8724;51.272;6.554;2023-12-20T00:08:48;5.50;;;4.50;;
4700;SDS011;8724;51.272;6.554;2023-12-20T00:11:16;4.70;;;4.23;;
4700;SDS011;8724;51.272;6.554;2023-12-20T00:13:45;5.33;;;4.90;;
4700;SDS011;8724;51.272;6.554;2023-12-20T00:16:17;7.57;;;5.70;;
4700;SDS011;8724;51.272;6.554;2023-12-20T00:18:45;7.60;;;6.50;;
4700;SDS011;8724;51.272;6.554;2023-12-20T00:21:14;6.20;;;5.67;;
4700;SDS011;8724;51.272;6.554;2023-12-20T00:23:43;9.07;;;6.80;;
4700;SDS011;8724;51.272;6.554;2023-12-20T00:26:11;7.50;;;6.40;;
4700;SDS011;8724;51.272;6.554;2023-12-20T00:28:39;8.80;;;7.00;;
4700;SDS011;8724;51.272;6.554;2023-12-20T00:31:07;7.20;;;6.10;;
4700;SDS011;8724;51.272;6.554;2023-12-20T00:33:35;6.93;;;6.23;;
4700;SDS011;8724;51.272;6.554;2023-12-20T00:36:04;6.90;;;6.20;;
4700;SDS011;8724;51.272;6.554;2023-12-20T00:38:32;10.10;;;6.00;;
4700;SDS011;8724;51.272;6.554;2023-12-20T00:41:02;7.50;;;6.50;;
4700;SDS011;8724;51.272;6.554;2023-12-20T00:43:30;6.53;;;5.93;;
4700;SDS011;8724;51.272;6.554;2023-12-20T00:45:58;8.30;;;6.50;;
4700;SDS011;8724;51.272;6.554;2023-12-20T00:48:27;10.00;;;7.47;;
4700;SDS011;8724;51.272;6.554;2023-12-20T00:50:57;6.70;;;6.00;;
4700;SDS011;8724;51.272;6.554;2023-12-20T00:53:25;11.23;;;7.70;;
4700;SDS011;8724;51.272;6.554;2023-12-20T00:55:53;9.70;;;8.17;;
4700;SDS011;8724;51.272;6.554;2023-12-20T00:58:22;10.07;;;7.60;;
4700;SDS011;8724;51.272;6.554;2023-12-20T01:00:51;10.60;;;8.20;;
4700;SDS011;8724;51.272;6.554;2023-12-20T01:03:19;9.93;;;8.80;;
4700;SDS011;8724;51.272;6.554;2023-12-20T01:05:47;10.17;;;8.40;;
4700;SDS011;8724;51.272;6.554;2023-12-20T01:08:15;12.17;;;9.53;;
4700;SDS011;8724;51.272;6.554;2023-12-20T01:10:43;16.60;;;10.37;;
4700;SDS011;8724;51.272;6.554;2023-12-20T01:13:13;10.93;;;9.80;;
4700;SDS011;8724;51.272;6.554;2023-12-20T01:15:42;11.63;;;9.10;;
4700;SDS011;8724;51.272;6.554;2023-12-20T01:18:10;10.33;;;8.93;;
4700;SDS011;8724;51.272;6.554;2023-12-20T01:20:39;15.73;;;9.67;;
4700;SDS011;8724;51.272;6.554;2023-12-20T01:23:07;9.63;;;8.47;;
4700;SDS011;8724;51.272;6.554;2023-12-20T01:25:35;12.00;;;7.60;;
4700;SDS011;8724;51.272;6.554;2023-12-20T01:28:03;12.00;;;7.73;;
4700;SDS011;8724;51.272;6.554;2023-12-20T01:30:34;11.47;;;7.67;;
4700;SDS011;8724;51.272;6.554;2023-12-20T01:33:04;16.07;;;9.00;;
4700;SDS011;8724;51.272;6.554;2023-12-20T01:35:32;12.77;;;8.50;;
4700;SDS011;8724;51.272;6.554;2023-12-20T01:38:00;9.93;;;6.90;;
4700;SDS011;8724;51.272;6.554;2023-12-20T01:40:28;11.60;;;7.67;;
4700;SDS011;8724;51.272;6.554;2023-12-20T01:42:59;12.67;;;7.70;;
4700;SDS011;8724;51.272;6.554;2023-12-20T01:45:28;13.13;;;7.00;;
4700;SDS011;8724;51.272;6.554;2023-12-20T01:47:56;11.90;;;6.90;;
4700;SDS011;8724;51.272;6.554;2023-12-20T01:50:27;10.73;;;6.17;;
4700;SDS011;8724;51.272;6.554;2023-12-20T01:52:55;12.83;;;6.10;;
4700;SDS011;8724;51.272;6.554;2023-12-20T01:55:27;13.93;;;6.23;;
4700;SDS011;8724;51.272;6.554;2023-12-20T01:57:58;8.93;;;5.53;;
4700;SDS011;8724;51.272;6.554;2023-12-20T02:00:27;13.90;;;6.10;;
4700;SDS011;8724;51.272;6.554;2023-12-20T02:02:56;7.60;;;4.50;;
4700;SDS011;8724;51.272;6.554;2023-12-20T02:05:30;7.50;;;4.77;;
4700;SDS011;8724;51.272;6.554;2023-12-20T02:07:58;8.77;;;4.80;;
4700;SDS011;8724;51.272;6.554;2023-12-20T02:10:26;8.67;;;5.00;;
4700;SDS011;8724;51.272;6.554;2023-12-20T02:12:55;6.60;;;3.97;;
4700;SDS011;8724;51.272;6.554;2023-12-20T02:15:23;10.87;;;4.30;;
4700;SDS011;8724;51.272;6.554;2023-12-20T02:17:51;8.90;;;4.33;;
4700;SDS011;8724;51.272;6.554;2023-12-20T02:20:21;9.23;;;4.47;;
4700;SDS011;8724;51.272;6.554;2023-12-20T02:22:50;11.23;;;4.83;;
4700;SDS011;8724;51.272;6.554;2023-12-20T02:25:18;7.20;;;4.03;;
4700;SDS011;8724;51.272;6.554;2023-12-20T02:27:46;10.97;;;3.37;;
4700;SDS011;8724;51.272;6.554;2023-12-20T02:30:15;10.33;;;3.60;;
4700;SDS011;8724;51.272;6.554;2023-12-20T02:32:44;6.87;;;2.90;;
4700;SDS011;8724;51.272;6.554;2023-12-20T02:35:12;6.87;;;3.60;;
4700;SDS011;8724;51.272;6.554;2023-12-20T02:37:40;6.30;;;3.20;;
4700;SDS011;8724;51.272;6.554;2023-12-20T02:40:10;6.93;;;3.13;;
4700;SDS011;8724;51.272;6.554;2023-12-20T02:42:38;7.27;;;2.70;;
4700;SDS011;8724;51.272;6.554;2023-12-20T02:45:07;7.20;;;2.90;;
4700;SDS011;8724;51.272;6.554;2023-12-20T02:47:35;7.00;;;3.07;;
4700;SDS011;8724;51.272;6.554;2023-12-20T02:50:03;11.30;;;2.97;;
4700;SDS011;8724;51.272;6.554;2023-12-20T02:52:32;6.73;;;2.67;;
4700;SDS011;8724;51.272;6.554;2023-12-20T02:55:00;4.50;;;2.30;;
4700;SDS011;8724;51.272;6.554;2023-12-20T02:57:30;9.53;;;3.43;;
4700;SDS011;8724;51.272;6.554;2023-12-20T02:59:59;6.77;;;2.37;;
4700;SDS011;8724;51.272;6.554;2023-12-20T03:02:27;10.63;;;2.77;;
4700;SDS011;8724;51.272;6.554;2023-12-20T03:04:56;11.70;;;3.63;;
4700;SDS011;8724;51.272;6.554;2023-12-20T03:07:26;5.07;;;2.23;;
4700;SDS011;8724;51.272;6.554;2023-12-20T03:09:54;8.97;;;2.33;;
4700;SDS011;8724;51.272;6.554;2023-12-20T03:12:43;8.20;;;2.60;;
4700;SDS011;8724;51.272;6.554;2023-12-20T03:15:11;11.67;;;3.30;;
4700;SDS011;8724;51.272;6.554;2023-12-20T03:17:39;7.70;;;2.43;;
4700;SDS011;8724;51.272;6.554;2023-12-20T03:20:08;7.07;;;2.70;;
4700;SDS011;8724;51.272;6.554;2023-12-20T03:22:36;10.60;;;2.67;;
4700;SDS011;8724;51.272;6.554;2023-12-20T03:25:04;6.73;;;2.70;;
4700;SDS011;8724;51.272;6.554;2023-12-20T03:27:33;7.50;;;2.60;;
4700;SDS011;8724;51.272;6.554;2023-12-20T03:30:02;5.90;;;2.80;;
4700;SDS011;8724;51.272;6.554;2023-12-20T03:32:31;5.77;;;2.90;;
4700;SDS011;8724;51.272;6.554;2023-12-20T03:34:59;8.00;;;2.70;;
4700;SDS011;8724;51.272;6.554;2023-12-20T03:37:28;6.80;;;2.67;;
4700;SDS011;8724;51.272;6.554;2023-12-20T03:39:56;7.67;;;2.50;;
4700;SDS011;8724;51.272;6.554;2023-12-20T03:42:24;6.07;;;3.00;;
4700;SDS011;8724;51.272;6.554;2023-12-20T03:44:52;7.03;;;2.93;;
4700;SDS011;8724;51.272;6.554;2023-12-20T03:47:21;13.80;;;3.00;;
4700;SDS011;8724;51.272;6.554;2023-12-20T03:49:49;9.17;;;2.67;;
4700;SDS011;8724;51.272;6.554;2023-12-20T03:52:18;10.87;;;3.50;;
4700;SDS011;8724;51.272;6.554;2023-12-20T03:54:46;7.90;;;3.37;;
4700;SDS011;8724;51.272;6.554;2023-12-20T03:57:14;6.50;;;3.17;;
4700;SDS011;8724;51.272;6.554;2023-12-20T03:59:42;10.13;;;3.27;;
4700;SDS011;8724;51.272;6.554;2023-12-20T04:02:10;10.33;;;3.17;;
4700;SDS011;8724;51.272;6.554;2023-12-20T04:04:40;9.00;;;3.10;;
4700;SDS011;8724;51.272;6.554;2023-12-20T04:07:08;11.63;;;4.00;;
4700;SDS011;8724;51.272;6.554;2023-12-20T04:09:36;12.13;;;3.67;;
4700;SDS011;8724;51.272;6.554;2023-12-20T04:12:05;7.67;;;3.07;;
4700;SDS011;8724;51.272;6.554;2023-12-20T04:14:33;8.77;;;3.60;;
4700;SDS011;8724;51.272;6.554;2023-12-20T04:17:01;10.63;;;3.97;;
4700;SDS011;8724;51.272;6.554;2023-12-20T04:19:30;7.30;;;3.37;;
4700;SDS011;8724;51.272;6.554;2023-12-20T04:21:59;10.77;;;4.13;;
4700;SDS011;8724;51.272;6.554;2023-12-20T04:24:28;10.17;;;4.17;;
4700;SDS011;8724;51.272;6.554;2023-12-20T04:26:56;9.67;;;3.93;;
4700;SDS011;8724;51.272;6.554;2023-12-20T04:29:24;10.00;;;4.53;;
4700;SDS011;8724;51.272;6.554;2023-12-20T04:31:52;11.67;;;4.47;;
4700;SDS011;8724;51.272;6.554;2023-12-20T04:34:20;10.40;;;3.50;;
4700;SDS011;8724;51.272;6.554;2023-12-20T04:36:49;10.13;;;3.57;;
4700;SDS011;8724;51.272;6.554;2023-12-20T04:39:19;10.57;;;4.00;;
4700;SDS011;8724;51.272;6.554;2023-12-20T04:41:47;14.30;;;5.10;;
4700;SDS011;8724;51.272;6.554;2023-12-20T04:44:16;8.70;;;3.70;;
4700;SDS011;8724;51.272;6.554;2023-12-20T04:46:44;8.93;;;5.23;;
4700;SDS011;8724;51.272;6.554;2023-12-20T04:49:12;11.77;;;4.70;;
4700;SDS011;8724;51.272;6.554;2023-12-20T04:51:40;6.23;;;3.73;;
4700;SDS011;8724;51.272;6.554;2023-12-20T04:54:08;7.60;;;3.90;;
4700;SDS011;8724;51.272;6.554;2023-12-20T04:56:38;11.37;;;4.80;;
4700;SDS011;8724;51.272;6.554;2023-12-20T04:59:06;11.57;;;4.70;;
4700;SDS011;8724;51.272;6.554;2023-12-20T05:01:34;14.87;;;4.40;;
4700;SDS011;8724;51.272;6.554;2023-12-20T05:04:03;12.90;;;4.77;;
4700;SDS011;8724;51.272;6.554;2023-12-20T05:06:31;11.87;;;4.90;;
4700;SDS011;8724;51.272;6.554;2023-12-20T05:08:59;10.97;;;5.37;;
4700;SDS011;8724;51.272;6.554;2023-12-20T05:11:27;10.13;;;3.90;;
4700;SDS011;8724;51.272;6.554;2023-12-20T05:13:57;12.97;;;4.70;;
4700;SDS011;8724;51.272;6.554;2023-12-20T05:16:25;13.97;;;4.60;;
4700;SDS011;8724;51.272;6.554;2023-12-20T05:18:53;11.53;;;4.47;;
4700;SDS011;8724;51.272;6.554;2023-12-20T05:21:22;7.40;;;4.10;;
4700;SDS011;8724;51.272;6.554;2023-12-20T05:23:50;12.47;;;4.87;;
4700;SDS011;8724;51.272;6.554;2023-12-20T05:26:18;9.03;;;4.83;;
4700;SDS011;8724;51.272;6.554;2023-12-20T05:28:46;8.53;;;3.77;;
4700;SDS011;8724;51.272;6.554;2023-12-20T05:31:15;12.27;;;4.20;;
4700;SDS011;8724;51.272;6.554;2023-12-20T05:33:43;7.17;;;3.33;;
4700;SDS011;8724;51.272;6.554;2023-12-20T05:36:12;12.80;;;4.40;;
4700;SDS011;8724;51.272;6.554;2023-12-20T05:38:41;7.10;;;3.23;;
4700;SDS011;8724;51.272;6.554;2023-12-20T05:41:09;7.83;;;3.63;;
4700;SDS011;8724;51.272;6.554;2023-12-20T05:43:37;11.20;;;4.10;;
4700;SDS011;8724;51.272;6.554;2023-12-20T05:46:05;11.00;;;4.00;;
4700;SDS011;8724;51.272;6.554;2023-12-20T05:48:35;10.57;;;4.00;;
4700;SDS011;8724;51.272;6.554;2023-12-20T05:51:03;9.37;;;4.10;;
4700;SDS011;8724;51.272;6.554;2023-12-20T05:53:31;12.40;;;4.60;;
4700;SDS011;8724;51.272;6.554;2023-12-20T05:55:59;7.07;;;3.97;;
4700;SDS011;8724;51.272;6.554;2023-12-20T05:58:27;12.50;;;4.20;;
4700;SDS011;8724;51.272;6.554;2023-12-20T06:00:56;12.20;;;4.17;;
4700;SDS011;8724;51.272;6.554;2023-12-20T06:03:24;13.00;;;4.37;;
4700;SDS011;8724;51.272;6.554;2023-12-20T06:05:53;10.07;;;4.53;;
4700;SDS011;8724;51.272;6.554;2023-12-20T06:08:38;7.67;;;3.90;;
4700;SDS011;8724;51.272;6.554;2023-12-20T06:11:06;15.07;;;4.50;;
4700;SDS011;8724;51.272;6.554;2023-12-20T06:13:34;12.63;;;4.70;;
4700;SDS011;8724;51.272;6.554;2023-12-20T06:16:05;12.33;;;3.93;;
4700;SDS011;8724;51.272;6.554;2023-12-20T06:18:33;13.83;;;4.20;;
4700;SDS011;8724;51.272;6.554;2023-12-20T06:21:04;14.40;;;4.33;;
4700;SDS011;8724;51.272;6.554;2023-12-20T06:23:34;11.40;;;4.30;;
4700;SDS011;8724;51.272;6.554;2023-12-20T06:26:02;12.77;;;3.73;;
4700;SDS011;8724;51.272;6.554;2023-12-20T06:28:30;12.13;;;3.57;;
4700;SDS011;8724;51.272;6.554;2023-12-20T06:30:58;10.30;;;3.93;;
4700;SDS011;8724;51.272;6.554;2023-12-20T06:33:27;10.43;;;3.90;;
4700;SDS011;8724;51.272;6.554;2023-12-20T06:35:55;11.70;;;4.33;;
4700;SDS011;8724;51.272;6.554;2023-12-20T06:38:25;12.63;;;4.33;;
4700;SDS011;8724;51.272;6.554;2023-12-20T06:40:53;12.77;;;4.17;;
4700;SDS011;8724;51.272;6.554;2023-12-20T06:43:24;10.70;;;4.00;;
4700;SDS011;8724;51.272;6.554;2023-12-20T06:46:11;11.33;;;3.60;;
4700;SDS011;8724;51.272;6.554;2023-12-20T06:48:40;12.27;;;3.90;;
4700;SDS011;8724;51.272;6.554;2023-12-20T06:51:10;8.13;;;3.37;;
4700;SDS011;8724;51.272;6.554;2023-12-20T06:53:41;11.20;;;3.70;;
4700;SDS011;8724;51.272;6.554;2023-12-20T06:56:10;11.80;;;4.10;;
4700;SDS011;8724;51.272;6.554;2023-12-20T06:58:43;15.30;;;4.17;;
4700;SDS011;8724;51.272;6.554;2023-12-20T07:01:11;12.50;;;3.87;;
4700;SDS011;8724;51.272;6.554;2023-12-20T07:03:39;7.83;;;3.53;;
4700;SDS011;8724;51.272;6.554;2023-12-20T07:06:08;10.13;;;4.20;;
4700;SDS011;8724;51.272;6.554;2023-12-20T07:08:36;10.50;;;4.00;;
4700;SDS011;8724;51.272;6.554;2023-12-20T07:11:05;8.27;;;3.50;;
4700;SDS011;8724;51.272;6.554;2023-12-20T07:13:33;14.90;;;4.30;;
4700;SDS011;8724;51.272;6.554;2023-12-20T07:16:02;16.00;;;4.57;;
4700;SDS011;8724;51.272;6.554;2023-12-20T07:18:30;14.43;;;4.47;;
4700;SDS011;8724;51.272;6.554;2023-12-20T07:20:59;11.97;;;4.57;;
4700;SDS011;8724;51.272;6.554;2023-12-20T07:23:27;13.53;;;3.70;;
4700;SDS011;8724;51.272;6.554;2023-12-20T07:25:55;12.20;;;3.60;;
4700;SDS011;8724;51.272;6.554;2023-12-20T07:28:24;15.83;;;4.50;;
4700;SDS011;8724;51.272;6.554;2023-12-20T07:30:52;12.83;;;4.23;;
4700;SDS011;8724;51.272;6.554;2023-12-20T07:33:21;10.83;;;4.40;;
4700;SDS011;8724;51.272;6.554;2023-12-20T07:35:49;8.20;;;3.73;;
4700;SDS011;8724;51.272;6.554;2023-12-20T07:38:18;15.33;;;4.70;;
4700;SDS011;8724;51.272;6.554;2023-12-20T07:40:46;10.63;;;4.17;;
4700;SDS011;8724;51.272;6.554;2023-12-20T07:43:14;12.67;;;5.53;;
4700;SDS011;8724;51.272;6.554;2023-12-20T07:45:44;10.03;;;3.80;;
4700;SDS011;8724;51.272;6.554;2023-12-20T07:48:12;11.00;;;4.93;;
4700;SDS011;8724;51.272;6.554;2023-12-20T07:50:40;21.63;;;6.40;;
4700;SDS011;8724;51.272;6.554;2023-12-20T07:53:09;14.80;;;5.20;;
4700;SDS011;8724;51.272;6.554;2023-12-20T07:55:37;11.83;;;5.57;;
4700;SDS011;8724;51.272;6.554;2023-12-20T07:58:06;13.70;;;5.50;;
4700;SDS011;8724;51.272;6.554;2023-12-20T08:00:34;17.30;;;5.00;;
4700;SDS011;8724;51.272;6.554;2023-12-20T08:03:04;10.83;;;4.43;;
4700;SDS011;8724;51.272;6.554;2023-12-20T08:05:33;21.87;;;5.27;;
4700;SDS011;8724;51.272;6.554;2023-12-20T08:08:01;19.60;;;5.27;;
4700;SDS011;8724;51.272;6.554;2023-12-20T08:10:29;13.87;;;4.43;;
4700;SDS011;8724;51.272;6.554;2023-12-20T08:12:57;10.80;;;3.67;;
4700;SDS011;8724;51.272;6.554;2023-12-20T08:15:25;12.60;;;4.43;;
4700;SDS011;8724;51.272;6.554;2023-12-20T08:17:53;18.60;;;4.87;;
4700;SDS011;8724;51.272;6.554;2023-12-20T08:20:23;11.70;;;5.00;;
4700;SDS011;8724;51.272;6.554;2023-12-20T08:23:05;14.83;;;4.10;;
4700;SDS011;8724;51.272;6.554;2023-12-20T08:25:33;14.10;;;4.70;;
4700;SDS011;8724;51.272;6.554;2023-12-20T08:28:02;9.93;;;3.83;;
4700;SDS011;8724;51.272;6.554;2023-12-20T08:30:30;11.40;;;4.20;;
4700;SDS011;8724;51.272;6.554;2023-12-20T08:32:59;14.47;;;4.67;;
4700;SDS011;8724;51.272;6.554;2023-12-20T08:35:29;14.80;;;4.90;;
4700;SDS011;8724;51.272;6.554;2023-12-20T08:37:57;11.23;;;4.43;;
4700;SDS011;8724;51.272;6.554;2023-12-20T08:40:26;13.33;;;4.27;;
4700;SDS011;8724;51.272;6.554;2023-12-20T08:42:55;16.03;;;5.20;;
4700;SDS011;8724;51.272;6.554;2023-12-20T08:45:23;15.50;;;4.70;;
4700;SDS011;8724;51.272;6.554;2023-12-20T08:47:51;15.50;;;4.43;;
4700;SDS011;8724;51.272;6.554;2023-12-20T08:50:21;15.77;;;4.57;;
4700;SDS011;8724;51.272;6.554;2023-12-20T08:52:50;15.60;;;4.60;;
4700;SDS011;8724;51.272;6.554;2023-12-20T08:55:18;10.80;;;4.03;;
4700;SDS011;8724;51.272;6.554;2023-12-20T08:57:46;12.33;;;3.30;;
4700;SDS011;8724;51.272;6.554;2023-12-20T09:00:15;15.00;;;4.77;;
4700;SDS011;8724;51.272;6.554;2023-12-20T09:02:46;10.63;;;3.80;;
4700;SDS011;8724;51.272;6.554;2023-12-20T09:05:14;10.90;;;3.17;;
4700;SDS011;8724;51.272;6.554;2023-12-20T09:07:43;15.43;;;4.60;;
4700;SDS011;8724;51.272;6.554;2023-12-20T09:10:13;12.37;;;3.97;;
4700;SDS011;8724;51.272;6.554;2023-12-20T09:12:43;15.80;;;3.53;;
4700;SDS011;8724;51.272;6.554;2023-12-20T09:15:13;11.57;;;4.10;;
4700;SDS011;8724;51.272;6.554;2023-12-20T09:17:42;13.03;;;4.30;;
4700;SDS011;8724;51.272;6.554;2023-12-20T09:20:11;6.37;;;3.43;;
4700;SDS011;8724;51.272;6.554;2023-12-20T09:22:40;13.40;;;4.07;;
4700;SDS011;8724;51.272;6.554;2023-12-20T09:25:09;11.77;;;3.70;;
4700;SDS011;8724;51.272;6.554;2023-12-20T09:27:40;17.80;;;4.10;;
4700;SDS011;8724;51.272;6.554;2023-12-20T09:30:09;11.00;;;3.10;;
4700;SDS011;8724;51.272;6.554;2023-12-20T09:32:37;11.07;;;3.43;;
4700;SDS011;8724;51.272;6.554;2023-12-20T09:35:06;10.27;;;3.93;;
4700;SDS011;8724;51.272;6.554;2023-12-20T09:37:35;15.83;;;4.30;;
4700;SDS011;8724;51.272;6.554;2023-12-20T09:40:03;13.97;;;4.73;;
4700;SDS011;8724;51.272;6.554;2023-12-20T09:42:36;11.37;;;4.53;;
4700;SDS011;8724;51.272;6.554;2023-12-20T09:45:14;8.87;;;3.57;;
4700;SDS011;8724;51.272;6.554;2023-12-20T09:47:43;12.27;;;3.80;;
4700;SDS011;8724;51.272;6.554;2023-12-20T09:50:11;15.90;;;3.90;;
4700;SDS011;8724;51.272;6.554;2023-12-20T09:52:40;9.37;;;2.87;;
4700;SDS011;8724;51.272;6.554;2023-12-20T09:55:10;11.77;;;4.10;;
4700;SDS011;8724;51.272;6.554;2023-12-20T09:57:39;18.53;;;4.57;;
4700;SDS011;8724;51.272;6.554;2023-12-20T10:00:07;7.63;;;3.83;;
4700;SDS011;8724;51.272;6.554;2023-12-20T10:02:42;8.63;;;3.73;;
4700;SDS011;8724;51.272;6.554;2023-12-20T10:05:15;15.70;;;4.40;;
4700;SDS011;8724;51.272;6.554;2023-12-20T10:07:46;7.40;;;3.87;;
4700;SDS011;8724;51.272;6.554;2023-12-20T10:10:14;11.93;;;3.23;;
4700;SDS011;8724;51.272;6.554;2023-12-20T10:12:43;9.13;;;2.80;;
4700;SDS011;8724;51.272;6.554;2023-12-20T10:15:30;11.13;;;4.30;;
4700;SDS011;8724;51.272;6.554;2023-12-20T10:17:59;9.70;;;4.07;;
4700;SDS011;8724;51.272;6.554;2023-12-20T10:20:28;12.30;;;4.20;;
4700;SDS011;8724;51.272;6.554;2023-12-20T10:22:57;16.20;;;3.93;;
4700;SDS011;8724;51.272;6.554;2023-12-20T10:25:26;12.03;;;4.67;;
4700;SDS011;8724;51.272;6.554;2023-12-20T10:28:08;7.00;;;3.63;;
4700;SDS011;8724;51.272;6.554;2023-12-20T10:30:38;11.90;;;3.70;;
4700;SDS011;8724;51.272;6.554;2023-12-20T10:33:08;11.93;;;3.47;;
4700;SDS011;8724;51.272;6.554;2023-12-20T10:35:38;12.90;;;4.07;;
4700;SDS011;8724;51.272;6.554;2023-12-20T10:38:11;16.90;;;3.87;;
4700;SDS011;8724;51.272;6.554;2023-12-20T10:40:42;10.03;;;3.40;;
4700;SDS011;8724;51.272;6.554;2023-12-20T10:43:12;11.33;;;4.00;;
4700;SDS011;8724;51.272;6.554;2023-12-20T10:45:41;11.40;;;3.40;;
4700;SDS011;8724;51.272;6.554;2023-12-20T10:48:11;8.57;;;2.87;;
4700;SDS011;8724;51.272;6.554;2023-12-20T10:50:40;9.90;;;3.10;;
4700;SDS011;8724;51.272;6.554;2023-12-20T10:53:09;8.57;;;3.33;;
4700;SDS011;8724;51.272;6.554;2023-12-20T10:55:38;12.53;;;3.87;;
4700;SDS011;8724;51.272;6.554;2023-12-20T10:58:08;10.80;;;3.10;;
4700;SDS011;8724;51.272;6.554;2023-12-20T11:00:39;12.00;;;3.37;;
4700;SDS011;8724;51.272;6.554;2023-12-20T11:03:08;14.67;;;3.43;;
4700;SDS011;8724;51.272;6.554;2023-12-20T11:05:43;7.20;;;3.23;;
4700;SDS011;8724;51.272;6.554;2023-12-20T11:08:19;12.07;;;4.00;;
4700;SDS011;8724;51.272;6.554;2023-12-20T11:10:54;10.87;;;3.40;;
4700;SDS011;8724;51.272;6.554;2023-12-20T11:13:26;8.37;;;3.53;;
4700;SDS011;8724;51.272;6.554;2023-12-20T11:15:59;12.97;;;3.20;;
4700;SDS011;8724;51.272;6.554;2023-12-20T11:18:30;8.70;;;2.90;;
4700;SDS011;8724;51.272;6.554;2023-12-20T11:21:01;17.73;;;4.00;;
4700;SDS011;8724;51.272;6.554;2023-12-20T11:23:32;10.87;;;3.10;;
4700;SDS011;8724;51.272;6.554;2023-12-20T11:26:02;7.93;;;2.50;;
4700;SDS011;8724;51.272;6.554;2023-12-20T11:28:30;11.03;;;3.40;;
4700;SDS011;8724;51.272;6.554;2023-12-20T11:31:00;8.27;;;3.13;;
4700;SDS011;8724;51.272;6.554;2023-12-20T11:33:29;15.13;;;4.17;;
4700;SDS011;8724;51.272;6.554;2023-12-20T11:36:07;11.47;;;3.47;;
4700;SDS011;8724;51.272;6.554;2023-12-20T11:38:49;15.43;;;4.30;;
4700;SDS011;8724;51.272;6.554;2023-12-20T11:41:23;12.93;;;3.53;;
4700;SDS011;8724;51.272;6.554;2023-12-20T11:43:53;12.53;;;3.67;;
4700;SDS011;8724;51.272;6.554;2023-12-20T11:46:21;11.20;;;3.30;;
4700;SDS011;8724;51.272;6.554;2023-12-20T11:48:51;9.60;;;4.00;;
4700;SDS011;8724;51.272;6.554;2023-12-20T11:51:21;7.13;;;3.50;;
4700;SDS011;8724;51.272;6.554;2023-12-20T11:53:51;12.10;;;3.90;;
4700;SDS011;8724;51.272;6.554;2023-12-20T11:56:19;12.10;;;3.83;;
4700;SDS011;8724;51.272;6.554;2023-12-20T11:58:47;8.10;;;4.07;;
4700;SDS011;8724;51.272;6.554;2023-12-20T12:01:17;11.63;;;2.70;;
4700;SDS011;8724;51.272;6.554;2023-12-20T12:03:48;7.23;;;2.50;;
4700;SDS011;8724;51.272;6.554;2023-12-20T12:06:16;8.00;;;3.00;;
4700;SDS011;8724;51.272;6.554;2023-12-20T12:08:46;7.87;;;2.93;;
4700;SDS011;8724;51.272;6.554;2023-12-20T12:11:14;4.53;;;2.60;;
4700;SDS011;8724;51.272;6.554;2023-12-20T12:13:42;11.83;;;3.33;;
4700;SDS011;8724;51.272;6.554;2023-12-20T12:16:10;9.60;;;3.10;;
4700;SDS011;8724;51.272;6.554;2023-12-20T12:18:38;9.53;;;3.43;;
4700;SDS011;8724;51.272;6.554;2023-12-20T12:21:08;9.10;;;2.40;;
4700;SDS011;8724;51.272;6.554;2023-12-20T12:23:45;9.00;;;3.00;;
4700;SDS011;8724;51.272;6.554;2023-12-20T12:26:14;10.47;;;3.90;;
4700;SDS011;8724;51.272;6.554;2023-12-20T12:28:42;10.87;;;3.53;;
4700;SDS011;8724;51.272;6.554;2023-12-20T12:31:13;12.07;;;4.20;;
4700;SDS011;8724;51.272;6.554;2023-12-20T12:33:43;7.87;;;3.47;;
4700;SDS011;8724;51.272;6.554;2023-12-20T12:36:12;9.37;;;3.67;;
4700;SDS011;8724;51.272;6.554;2023-12-20T12:38:42;15.77;;;4.53;;
4700;SDS011;8724;51.272;6.554;2023-12-20T12:41:13;10.20;;;3.63;;
4700;SDS011;8724;51.272;6.554;2023-12-20T12:43:42;8.27;;;3.23;;
4700;SDS011;8724;51.272;6.554;2023-12-20T12:46:10;5.13;;;2.80;;
4700;SDS011;8724;51.272;6.554;2023-12-20T12:48:39;9.03;;;3.00;;
4700;SDS011;8724;51.272;6.554;2023-12-20T12:51:10;6.30;;;2.97;;
4700;SDS011;8724;51.272;6.554;2023-12-20T12:53:39;11.87;;;3.63;;
4700;SDS011;8724;51.272;6.554;2023-12-20T12:56:08;8.43;;;2.93;;
4700;SDS011;8724;51.272;6.554;2023-12-20T12:58:37;12.60;;;3.17;;
4700;SDS011;8724;51.272;6.554;2023-12-20T13:01:05;6.70;;;3.13;;
4700;SDS011;8724;51.272;6.554;2023-12-20T13:03:34;14.70;;;4.30;;
4700;SDS011;8724;51.272;6.554;2023-12-20T13:06:03;9.63;;;3.33;;
4700;SDS011;8724;51.272;6.554;2023-12-20T13:08:32;13.90;;;3.37;;
4700;SDS011;8724;51.272;6.554;2023-12-20T13:11:00;12.70;;;3.97;;
4700;SDS011;8724;51.272;6.554;2023-12-20T13:13:30;15.43;;;4.30;;
4700;SDS011;8724;51.272;6.554;2023-12-20T13:16:00;11.07;;;3.83;;
4700;SDS011;8724;51.272;6.554;2023-12-20T13:18:28;12.90;;;4.20;;
4700;SDS011;8724;51.272;6.554;2023-12-20T13:20:56;10.73;;;3.40;;
4700;SDS011;8724;51.272;6.554;2023-12-20T13:23:24;10.33;;;3.57;;
4700;SDS011;8724;51.272;6.554;2023-12-20T13:25:52;11.47;;;3.53;;
4700;SDS011;8724;51.272;6.554;2023-12-20T13:28:21;12.60;;;3.70;;
4700;SDS011;8724;51.272;6.554;2023-12-20T13:30:49;11.67;;;4.00;;
4700;SDS011;8724;51.272;6.554;2023-12-20T13:33:18;11.50;;;4.13;;
4700;SDS011;8724;51.272;6.554;2023-12-20T13:35:47;6.47;;;2.93;;
4700;SDS011;8724;51.272;6.554;2023-12-20T13:38:15;13.37;;;3.83;;
4700;SDS011;8724;51.272;6.554;2023-12-20T13:40:43;13.23;;;4.17;;
4700;SDS011;8724;51.272;6.554;2023-12-20T13:43:11;8.43;;;3.67;;
4700;SDS011;8724;51.272;6.554;2023-12-20T13:45:40;10.30;;;3.50;;
4700;SDS011;8724;51.272;6.554;2023-12-20T13:48:08;7.60;;;3.17;;
4700;SDS011;8724;51.272;6.554;2023-12-20T13:50:38;6.97;;;3.13;;
4700;SDS011;8724;51.272;6.554;2023-12-20T13:53:06;6.20;;;2.97;;
4700;SDS011;8724;51.272;6.554;2023-12-20T13:55:34;8.10;;;3.60;;
4700;SDS011;8724;51.272;6.554;2023-12-20T13:58:02;9.10;;;3.10;;
4700;SDS011;8724;51.272;6.554;2023-12-20T14:00:31;9.80;;;3.33;;
4700;SDS011;8724;51.272;6.554;2023-12-20T14:02:59;8.53;;;3.20;;
4700;SDS011;8724;51.272;6.554;2023-12-20T14:05:28;7.27;;;2.70;;
4700;SDS011;8724;51.272;6.554;2023-12-20T14:07:57;7.80;;;3.33;;
4700;SDS011;8724;51.272;6.554;2023-12-20T14:10:27;6.93;;;2.90;;
4700;SDS011;8724;51.272;6.554;2023-12-20T14:12:55;9.13;;;3.30;;
4700;SDS011;8724;51.272;6.554;2023-12-20T14:15:24;9.77;;;3.30;;
4700;SDS011;8724;51.272;6.554;2023-12-20T14:17:52;9.90;;;3.23;;
4700;SDS011;8724;51.272;6.554;2023-12-20T14:20:21;8.57;;;3.07;;
4700;SDS011;8724;51.272;6.554;2023-12-20T14:22:49;8.60;;;3.33;;
4700;SDS011;8724;51.272;6.554;2023-12-20T14:25:18;6.90;;;2.57;;
4700;SDS011;8724;51.272;6.554;2023-12-20T14:27:47;9.17;;;3.40;;
4700;SDS011;8724;51.272;6.554;2023-12-20T14:30:15;11.63;;;3.83;;
4700;SDS011;8724;51.272;6.554;2023-12-20T14:32:43;6.63;;;3.00;;
4700;SDS011;8724;51.272;6.554;2023-12-20T14:35:12;11.90;;;3.90;;
4700;SDS011;8724;51.272;6.554;2023-12-20T14:37:40;7.80;;;3.27;;
4700;SDS011;8724;51.272;6.554;2023-12-20T14:40:09;6.63;;;3.50;;
4700;SDS011;8724;51.272;6.554;2023-12-20T14:42:43;5.93;;;2.80;;
4700;SDS011;8724;51.272;6.554;2023-12-20T14:45:12;5.63;;;3.57;;
4700;SDS011;8724;51.272;6.554;2023-12-20T14:47:42;8.00;;;3.80;;
4700;SDS011;8724;51.272;6.554;2023-12-20T14:50:11;8.30;;;2.93;;
4700;SDS011;8724;51.272;6.554;2023-12-20T14:52:45;8.57;;;4.13;;
4700;SDS011;8724;51.272;6.554;2023-12-20T14:55:13;9.63;;;3.97;;
4700;SDS011;8724;51.272;6.554;2023-12-20T14:57:43;10.60;;;3.70;;
4700;SDS011;8724;51.272;6.554;2023-12-20T15:00:12;7.27;;;3.10;;
4700;SDS011;8724;51.272;6.554;2023-12-20T15:02:42;7.70;;;3.47;;
4700;SDS011;8724;51.272;6.554;2023-12-20T15:05:11;7.43;;;3.10;;
4700;SDS011;8724;51.272;6.554;2023-12-20T15:07:40;11.20;;;3.63;;
4700;SDS011;8724;51.272;6.554;2023-12-20T15:10:08;6.57;;;2.70;;
4700;SDS011;8724;51.272;6.554;2023-12-20T15:12:37;8.30;;;3.33;;
4700;SDS011;8724;51.272;6.554;2023-12-20T15:15:07;12.27;;;3.33;;
4700;SDS011;8724;51.272;6.554;2023-12-20T15:17:36;7.83;;;3.50;;
4700;SDS011;8724;51.272;6.554;2023-12-20T15:20:04;7.90;;;3.30;;